Reading, VT (05062)

9:07 AM EDT on July 24, 2016 (GMT -0400)
MesoWest | | Change Station

Elev 1485 ft 43.59 °N, 72.59 °W | Updated 37 minutes ago

Clear
Clear
63 °F
Feels Like 63 °F
N
1
Wind Variable Wind from West
Gusts 0.0 mph

Today
High -- | Low -- °F
--% Chance of Precip.
Yesterday
High -- | Low -- °F
Precip. -- in
Pressure 29.99 in
Visibility 10.0 miles
Clouds Clear
Dew Point 58 °F
Humidity 84%
Rainfall in
Snow Depth Not available.
5:32 AM 8:21 PM
Waning Gibbous, 76% visible
METAR KVSF 241254Z AUTO 32007KT 10SM CLR 21/15 A2999 RMK AO2 SLP154 T02060150 TSNO
Pressure 29.99 in
Visibility 10.0 miles
Clouds Clear
Dew Point 58 °F
Humidity 84%
Rainfall in
Snow Depth Not available.
5:32 AM 8:21 PM
Waning Gibbous, 76% visible
METAR KVSF 241254Z AUTO 32007KT 10SM CLR 21/15 A2999 RMK AO2 SLP154 T02060150 TSNO

10-Day Weather Forecast

Almanac

Astronomy

Jul. 24, 2016 Rise Set
Actual Time
Civil Twilight
Nautical Twilight
Astronomical Twilight
Moon
Length of Visible Light
Length of Day
Tomorrow will be .
, % of the Moon is Illuminated

Today's Extremes

State Highs State Lows

Community

WunderPhotos

Upload Photos

1,927,054 photos uploaded!

WunderBlog® & News

Nearby

Air Quality

  Air Quality AQ Index Pollutant
Not available.

Snow Depth

Station Depth Elevation

Earthquake Activity

City Distance Mag. Time & Date
Minimum magnitude displayed is 2.5.

Coastal Water Temperatures

Place Temperature

Stations

Nearby Weather Stations

Station Location Temp. Windchill Dew Point Humidity Wind Precip. Elev Updated Type
                   

Watches & Warnings

There are currently no watches in effect.